createdAt,value
2019-05-13T00:00:25.251Z,69.10
2019-05-13T00:02:54.268Z,69.64
2019-05-13T00:05:20.748Z,69.45
2019-05-13T00:07:47.434Z,69.69
2019-05-13T00:10:14.930Z,69.87
2019-05-13T00:12:44.514Z,69.47
2019-05-13T00:15:13.961Z,69.69
2019-05-13T00:17:41.110Z,70.10
2019-05-13T00:20:08.326Z,70.33
2019-05-13T00:22:35.016Z,69.46
2019-05-13T00:25:04.054Z,69.56
2019-05-13T00:27:33.732Z,69.78
2019-05-13T00:29:59.841Z,69.37
2019-05-13T00:32:26.593Z,70.38
2019-05-13T00:34:53.475Z,69.75
2019-05-13T00:37:20.436Z,69.50
2019-05-13T00:39:47.000Z,69.46
2019-05-13T00:42:14.246Z,69.04
2019-05-13T00:44:41.186Z,70.56
2019-05-13T00:47:07.980Z,69.95
2019-05-13T00:49:34.829Z,69.78
2019-05-13T00:52:03.896Z,70.08
2019-05-13T00:54:30.702Z,69.79
2019-05-13T00:56:57.293Z,68.90
2019-05-13T00:59:24.314Z,69.72
2019-05-13T01:01:53.313Z,69.15
2019-05-13T01:04:20.245Z,69.04
2019-05-13T01:06:46.816Z,69.10
2019-05-13T01:09:14.534Z,69.86
2019-05-13T01:11:43.628Z,69.68
2019-05-13T01:14:10.079Z,69.69
2019-05-13T01:16:36.910Z,69.48
2019-05-13T01:19:04.176Z,69.90
2019-05-13T01:21:31.074Z,70.98
2019-05-13T01:23:57.791Z,71.07
2019-05-13T01:26:24.531Z,71.12
2019-05-13T01:28:53.456Z,70.33
2019-05-13T01:31:19.786Z,70.44
2019-05-13T01:33:46.376Z,69.74
2019-05-13T01:36:13.463Z,69.19
2019-05-13T01:38:43.571Z,69.93
2019-05-13T01:41:10.706Z,71.19
2019-05-13T01:43:37.385Z,69.96
2019-05-13T01:46:04.640Z,68.93
2019-05-13T01:48:33.314Z,69.45
2019-05-13T01:51:00.095Z,69.30
2019-05-13T01:53:27.145Z,69.37
2019-05-13T01:55:53.863Z,69.02
2019-05-13T01:58:20.509Z,69.45
2019-05-13T02:00:47.093Z,68.82
2019-05-13T02:03:14.527Z,68.88
2019-05-13T02:05:43.924Z,70.32
2019-05-13T02:08:10.410Z,69.16
2019-05-13T02:10:39.096Z,68.91
2019-05-13T02:13:05.754Z,69.08
2019-05-13T02:15:33.753Z,69.16
2019-05-13T02:18:00.648Z,69.33
2019-05-13T02:20:27.510Z,69.99
2019-05-13T02:22:54.063Z,69.19
2019-05-13T02:25:20.698Z,70.22
2019-05-13T02:27:47.344Z,69.90
2019-05-13T02:30:15.941Z,69.10
2019-05-13T02:32:43.126Z,69.28
2019-05-13T02:35:13.521Z,69.67
2019-05-13T02:37:43.506Z,68.35
2019-05-13T02:40:13.219Z,68.37
2019-05-13T02:42:38.788Z,68.89
2019-05-13T02:45:05.930Z,69.38
2019-05-13T02:47:33.166Z,69.08
2019-05-13T02:50:05.050Z,68.81
2019-05-13T02:52:33.453Z,68.62
2019-05-13T02:55:03.598Z,69.72
2019-05-13T02:57:27.988Z,69.75
2019-05-13T02:59:54.888Z,69.53
2019-05-13T03:02:22.354Z,69.60
2019-05-13T03:04:52.092Z,68.94
2019-05-13T03:07:17.969Z,69.28
2019-05-13T03:09:44.628Z,68.26
2019-05-13T03:12:13.088Z,68.49
2019-05-13T03:14:47.969Z,68.51
2019-05-13T03:17:13.685Z,69.17
2019-05-13T03:19:43.254Z,68.89
2019-05-13T03:22:09.305Z,69.47
2019-05-13T03:24:35.904Z,70.15
2019-05-13T03:27:02.868Z,69.04
2019-05-13T03:29:32.965Z,69.09
2019-05-13T03:31:58.841Z,69.39
2019-05-13T03:34:27.250Z,69.86
2019-05-13T03:36:57.738Z,69.15
2019-05-13T03:39:27.488Z,68.77
2019-05-13T03:41:58.451Z,68.98
2019-05-13T03:44:32.545Z,69.83
2019-05-13T03:47:03.481Z,68.74
2019-05-13T03:49:34.169Z,69.96
2019-05-13T03:52:02.893Z,70.05
2019-05-13T03:54:32.811Z,70.51
2019-05-13T03:56:59.299Z,70.90
2019-05-13T03:59:27.214Z,71.22
2019-05-13T04:01:55.073Z,71.10
2019-05-13T04:04:23.317Z,71.72
2019-05-13T04:06:53.101Z,71.91
2019-05-13T04:09:27.615Z,71.99
2019-05-13T04:11:52.338Z,72.50
2019-05-13T04:14:17.945Z,71.35
2019-05-13T04:16:44.792Z,72.29
2019-05-13T04:19:12.407Z,72.58
2019-05-13T04:21:42.985Z,72.77
2019-05-13T04:24:12.012Z,73.59
2019-05-13T04:26:37.316Z,73.31
2019-05-13T04:29:03.868Z,72.93
2019-05-13T04:31:33.297Z,73.03
2019-05-13T04:34:02.195Z,73.96
2019-05-13T04:36:28.282Z,72.69
2019-05-13T04:38:56.037Z,72.93
2019-05-13T04:41:23.442Z,72.40
2019-05-13T04:43:53.601Z,72.97
2019-05-13T04:46:22.459Z,72.14
2019-05-13T04:48:48.034Z,72.34
2019-05-13T04:51:14.882Z,72.79
2019-05-13T04:53:42.522Z,72.46
2019-05-13T04:56:13.278Z,73.09
2019-05-13T04:58:38.882Z,73.86
2019-05-13T05:01:14.116Z,72.86
2019-05-13T05:03:46.229Z,72.63
2019-05-13T05:06:15.131Z,72.87
2019-05-13T05:08:48.053Z,72.66
2019-05-13T05:11:22.229Z,73.41
2019-05-13T05:13:56.753Z,72.18
2019-05-13T05:16:32.399Z,72.50
2019-05-13T05:19:03.622Z,72.93
2019-05-13T05:21:36.038Z,72.46
2019-05-13T05:24:08.453Z,73.18
2019-05-13T05:26:42.128Z,72.55
2019-05-13T05:29:12.593Z,72.69
2019-05-13T05:31:45.144Z,71.96
2019-05-13T05:34:17.688Z,73.15
2019-05-13T05:36:52.057Z,73.22
2019-05-13T05:39:24.163Z,72.87
2019-05-13T05:41:55.633Z,72.09
2019-05-13T05:44:26.883Z,72.71
2019-05-13T05:46:57.045Z,71.66
2019-05-13T05:49:25.703Z,72.32
2019-05-13T05:51:58.042Z,71.56
2019-05-13T05:54:28.736Z,71.64
2019-05-13T05:57:01.239Z,71.40
2019-05-13T05:59:31.822Z,72.07
2019-05-13T06:02:01.971Z,72.16
2019-05-13T06:04:28.390Z,72.42
2019-05-13T06:06:55.677Z,71.32
2019-05-13T06:09:24.563Z,71.11
2019-05-13T06:11:53.463Z,71.89
2019-05-13T06:14:22.196Z,72.23
2019-05-13T06:16:51.849Z,71.88
2019-05-13T06:19:22.353Z,71.44
2019-05-13T06:21:51.186Z,71.98
2019-05-13T06:24:17.508Z,72.07
2019-05-13T06:26:44.606Z,72.36
2019-05-13T06:29:12.555Z,72.04
2019-05-13T06:31:41.750Z,71.58
2019-05-13T06:34:08.385Z,71.51
2019-05-13T06:36:35.649Z,71.09
2019-05-13T06:39:07.339Z,71.58
2019-05-13T06:41:34.014Z,71.42
2019-05-13T06:44:02.361Z,71.25
2019-05-13T06:46:29.207Z,71.36
2019-05-13T06:48:55.969Z,71.32
2019-05-13T06:51:22.764Z,71.11
2019-05-13T06:53:51.589Z,72.38
2019-05-13T06:56:18.045Z,70.94
2019-05-13T06:58:44.710Z,70.41
2019-05-13T07:01:11.693Z,69.24
2019-05-13T07:03:38.425Z,70.47
2019-05-13T07:06:05.130Z,70.74
2019-05-13T07:08:31.692Z,71.14
2019-05-13T07:10:58.539Z,71.19
2019-05-13T07:13:25.168Z,70.70
2019-05-13T07:15:52.274Z,70.97
2019-05-13T07:18:21.737Z,70.87
2019-05-13T07:20:48.839Z,70.54
2019-05-13T07:23:15.536Z,70.83
2019-05-13T07:25:42.341Z,71.59
2019-05-13T07:28:09.074Z,71.13
2019-05-13T07:30:42.475Z,71.52
2019-05-13T07:33:12.558Z,70.69
2019-05-13T07:35:44.300Z,70.26
2019-05-13T07:38:11.512Z,69.95
2019-05-13T07:40:38.027Z,70.37
2019-05-13T07:43:05.358Z,69.86
2019-05-13T07:45:33.176Z,70.43
2019-05-13T07:48:56.356Z,69.05
2019-05-13T07:51:22.961Z,69.38
2019-05-13T07:53:51.705Z,69.04
2019-05-13T07:56:18.114Z,69.26
2019-05-13T07:58:44.770Z,69.73
2019-05-13T08:01:12.418Z,69.28
2019-05-13T08:03:39.166Z,68.90
2019-05-13T08:06:05.967Z,69.20
2019-05-13T08:08:32.586Z,69.05
2019-05-13T08:11:01.173Z,68.67
2019-05-13T08:13:27.822Z,68.65
2019-05-13T08:15:54.804Z,68.61
2019-05-13T08:18:22.187Z,67.84
2019-05-13T08:20:49.214Z,68.91
2019-05-13T08:23:16.092Z,68.73
2019-05-13T08:25:43.103Z,68.92
2019-05-13T08:28:12.242Z,68.83
2019-05-13T08:30:39.395Z,68.45
2019-05-13T12:09:40.926Z,57.71
2019-05-13T12:12:07.938Z,58.18
2019-05-13T12:14:51.023Z,58.12
2019-05-13T12:17:03.157Z,57.92
2019-05-13T12:19:29.833Z,58.47
2019-05-13T12:21:56.798Z,58.48
2019-05-13T12:24:23.539Z,58.66
2019-05-13T12:26:53.149Z,58.57
2019-05-13T12:29:19.477Z,58.45
2019-05-13T12:31:46.225Z,58.57
2019-05-13T12:34:13.455Z,58.05
2019-05-13T12:36:43.303Z,57.70
2019-05-13T12:39:13.797Z,56.65
2019-05-13T12:41:38.936Z,57.07
2019-05-13T12:44:05.776Z,56.18
2019-05-13T12:46:32.725Z,57.38
2019-05-13T12:48:59.365Z,56.42
2019-05-13T12:51:26.361Z,57.04
2019-05-13T12:53:53.129Z,57.49
2019-05-13T12:56:23.218Z,57.15
2019-05-13T12:58:51.266Z,57.58
2019-05-13T13:01:17.522Z,56.75
2019-05-13T13:03:44.167Z,56.13
2019-05-13T13:06:30.000Z,56.32
2019-05-13T13:08:47.490Z,56.23
2019-05-13T13:11:08.326Z,55.72
2019-05-13T13:13:56.670Z,55.31
2019-05-13T13:16:04.217Z,55.05
2019-05-13T13:18:30.795Z,56.11
2019-05-13T13:21:05.315Z,55.14
2019-05-13T13:23:26.026Z,55.05
2019-05-13T13:25:57.048Z,55.05
2019-05-13T13:28:23.913Z,54.68
2019-05-13T13:30:52.926Z,55.68
2019-05-13T13:33:18.876Z,55.77
2019-05-13T13:38:13.956Z,56.26
2019-05-13T13:40:45.686Z,56.07
2019-05-13T13:43:12.312Z,56.38
2019-05-13T13:46:06.029Z,55.83
2019-05-13T13:48:07.586Z,55.32
2019-05-13T13:50:34.205Z,55.14
2019-05-13T13:53:00.958Z,56.03
2019-05-13T13:55:27.746Z,56.94
2019-05-13T13:57:56.788Z,56.44
2019-05-13T14:00:38.143Z,56.40
2019-05-13T14:02:54.104Z,56.52
2019-05-13T14:05:24.831Z,56.68
2019-05-13T14:06:58.552Z,56.24
2019-05-13T14:07:49.140Z,57.26
2019-05-13T14:10:16.613Z,56.97
2019-05-13T14:12:43.308Z,57.33
2019-05-13T14:15:11.073Z,56.21
2019-05-13T14:17:37.916Z,57.29
2019-05-13T14:20:06.921Z,57.49
2019-05-13T14:22:33.587Z,57.44
2019-05-13T14:25:00.256Z,57.16
2019-05-13T14:27:26.852Z,57.14
2019-05-13T14:29:53.485Z,57.20
2019-05-13T14:32:22.284Z,57.17
2019-05-13T14:34:48.531Z,57.29
2019-05-13T14:37:15.345Z,56.10
2019-05-13T14:39:42.702Z,55.77
2019-05-13T14:42:11.575Z,56.01
2019-05-13T14:44:38.206Z,54.15
2019-05-13T14:47:04.885Z,55.48
2019-05-13T14:49:31.841Z,54.26
2019-05-13T14:52:00.753Z,54.51
2019-05-13T14:54:28.423Z,57.44
2019-05-13T14:56:55.202Z,55.22
2019-05-13T14:59:22.201Z,55.27
2019-05-13T15:01:51.681Z,53.52
2019-05-13T15:04:21.925Z,55.38
2019-05-13T15:06:46.331Z,56.57
2019-05-13T15:09:13.039Z,56.92
2019-05-13T15:11:41.898Z,57.41
2019-05-13T15:14:08.166Z,57.54
2019-05-13T15:16:34.867Z,55.47
2019-05-13T15:19:01.921Z,56.88
2019-05-13T15:21:28.849Z,57.56
2019-05-13T15:23:55.492Z,57.48
2019-05-13T15:26:22.329Z,56.82
2019-05-13T15:28:51.145Z,58.22
2019-05-13T15:31:17.715Z,57.93
2019-05-13T15:33:44.507Z,58.35
2019-05-13T15:36:11.988Z,57.97
2019-05-13T15:38:41.259Z,58.72
2019-05-13T15:41:07.514Z,59.20
2019-05-13T15:43:34.094Z,60.07
2019-05-13T15:46:01.693Z,59.78
2019-05-13T15:48:31.519Z,57.92
2019-05-13T15:50:58.567Z,59.15
2019-05-13T15:53:25.190Z,59.17
2019-05-13T15:55:51.858Z,59.08
2019-05-13T15:58:21.683Z,57.29
2019-05-13T16:00:52.360Z,58.90
2019-05-13T16:03:19.484Z,57.80
2019-05-13T16:05:46.060Z,58.43
2019-05-13T16:08:13.083Z,57.90
2019-05-13T16:10:41.964Z,58.39
2019-05-13T16:13:11.983Z,57.56
2019-05-13T16:15:41.464Z,57.79
2019-05-13T16:18:07.452Z,58.33
2019-05-13T16:20:34.501Z,58.06
2019-05-13T16:23:02.421Z,58.74
2019-05-13T16:25:31.789Z,58.89
2019-05-13T16:27:57.929Z,58.57
2019-05-13T16:30:24.884Z,60.03
2019-05-13T16:32:52.095Z,61.16
2019-05-13T16:35:20.993Z,60.14
2019-05-13T16:37:47.732Z,60.08
2019-05-13T16:40:15.108Z,60.54
2019-05-13T16:42:42.361Z,60.75
2019-05-13T16:45:11.973Z,61.64
2019-05-13T16:47:55.410Z,61.83
2019-05-13T16:50:08.186Z,62.68
2019-05-13T16:52:35.149Z,62.65
2019-05-13T16:55:05.116Z,62.26
2019-05-13T16:57:31.766Z,61.98
2019-05-13T16:59:58.335Z,62.29
2019-05-13T17:02:24.955Z,62.76
2019-05-13T17:04:52.583Z,61.74
2019-05-13T17:07:21.268Z,61.82
2019-05-13T17:09:47.942Z,62.84
2019-05-13T17:12:15.941Z,62.42
2019-05-13T17:14:43.237Z,62.73
2019-05-13T17:17:11.905Z,63.17
2019-05-13T17:19:38.878Z,63.69
2019-05-13T17:22:05.586Z,64.53
2019-05-13T17:24:32.241Z,66.07
2019-05-13T17:27:01.388Z,66.18
2019-05-13T17:29:27.714Z,65.52
2019-05-13T17:31:54.484Z,65.80
2019-05-13T17:34:21.294Z,67.06
2019-05-13T17:36:47.975Z,69.16
2019-05-13T17:39:14.704Z,68.34
2019-05-13T17:41:41.721Z,69.57
2019-05-13T17:44:08.293Z,70.65
2019-05-13T17:46:34.910Z,70.28
2019-05-13T17:49:01.563Z,69.30
2019-05-13T17:51:28.347Z,69.47
2019-05-13T17:53:55.038Z,68.86
2019-05-13T17:56:22.964Z,68.85
2019-05-13T17:58:51.656Z,70.14
2019-05-13T18:01:21.055Z,70.22
2019-05-13T18:03:47.096Z,69.77
2019-05-13T18:06:14.276Z,69.81
2019-05-13T18:08:41.312Z,70.06
2019-05-13T18:11:08.295Z,69.13
2019-05-13T18:13:35.941Z,71.01
2019-05-13T18:16:03.519Z,71.11
2019-05-13T18:18:40.274Z,69.97
2019-05-13T18:21:01.275Z,70.91
2019-05-13T18:23:27.461Z,71.09
2019-05-13T18:25:54.298Z,70.13
2019-05-13T18:28:31.325Z,69.79
2019-05-13T18:30:57.511Z,71.27
2019-05-13T18:33:24.617Z,72.56
2019-05-13T18:35:54.672Z,71.37
2019-05-13T18:38:23.068Z,70.64
2019-05-13T18:40:52.386Z,71.12
2019-05-13T18:43:18.503Z,72.75
2019-05-13T18:45:45.363Z,73.29
2019-05-13T18:48:13.278Z,71.32
2019-05-13T18:50:42.002Z,73.05
2019-05-13T18:53:08.869Z,74.13
2019-05-13T18:55:36.301Z,73.58
2019-05-13T18:58:03.148Z,73.10
2019-05-13T19:00:32.070Z,72.33
2019-05-13T19:03:01.119Z,72.69
2019-05-13T19:05:28.390Z,72.32
2019-05-13T19:07:55.000Z,71.41
2019-05-13T19:10:24.890Z,72.55
2019-05-13T19:12:51.533Z,72.32
2019-05-13T19:15:21.258Z,72.80
2019-05-13T19:17:48.331Z,73.82
2019-05-13T19:20:15.202Z,75.28
2019-05-13T19:22:42.179Z,73.70
2019-05-13T19:25:11.955Z,74.43
2019-05-13T19:27:41.372Z,73.09
2019-05-13T19:30:12.117Z,74.22
2019-05-13T19:32:41.714Z,73.74
2019-05-13T19:35:11.689Z,75.43
2019-05-13T19:37:38.024Z,73.57
2019-05-13T19:40:05.599Z,73.90
2019-05-13T19:42:33.235Z,72.99
2019-05-13T19:45:01.933Z,74.93
2019-05-13T19:47:28.899Z,75.41
2019-05-13T19:49:55.864Z,75.05
2019-05-13T19:52:22.714Z,74.72
2019-05-13T19:54:51.397Z,73.33
2019-05-13T19:57:18.513Z,73.88
2019-05-13T19:59:45.543Z,72.93
2019-05-13T20:02:12.637Z,72.71
2019-05-13T20:04:41.365Z,72.70
2019-05-13T20:07:08.395Z,72.88
2019-05-13T20:09:34.980Z,74.38
2019-05-13T20:12:02.669Z,75.27
2019-05-13T20:14:29.459Z,74.50
2019-05-13T20:16:56.748Z,74.46
2019-05-13T20:19:23.586Z,73.38
2019-05-13T20:21:51.728Z,73.02
2019-05-13T20:24:18.825Z,73.82
2019-05-13T20:26:46.514Z,75.33
2019-05-13T20:29:13.281Z,74.14
2019-05-13T20:31:41.304Z,75.20
2019-05-13T20:34:08.322Z,74.35
2019-05-13T20:36:35.036Z,74.32
2019-05-13T20:39:02.221Z,74.30
2019-05-13T20:41:31.556Z,74.46
2019-05-13T20:43:58.006Z,75.86
2019-05-13T20:46:24.577Z,76.12
2019-05-13T20:48:51.948Z,75.00
2019-05-13T20:51:18.907Z,74.78
2019-05-13T20:53:48.482Z,74.16
2019-05-13T20:56:16.989Z,73.54
2019-05-13T20:58:43.649Z,73.24
2019-05-13T21:01:11.143Z,73.45
2019-05-13T21:03:38.030Z,73.51
2019-05-13T21:06:06.768Z,74.63
2019-05-13T21:08:33.394Z,76.36
2019-05-13T21:11:02.319Z,77.01
2019-05-13T21:13:31.459Z,75.86
2019-05-13T21:15:58.232Z,76.48
2019-05-13T21:18:24.909Z,77.19
2019-05-13T21:20:51.484Z,76.67
2019-05-13T21:23:18.104Z,75.97
2019-05-13T21:25:44.697Z,74.30
2019-05-13T21:28:11.543Z,74.09
2019-05-13T21:30:38.314Z,74.08
2019-05-13T21:33:05.055Z,74.28
2019-05-13T21:35:31.733Z,73.58
2019-05-13T21:37:58.401Z,73.96
2019-05-13T21:40:25.125Z,73.40
2019-05-13T21:42:52.703Z,75.17
2019-05-13T21:45:19.535Z,74.89
2019-05-13T21:47:46.208Z,74.51
2019-05-13T21:50:13.449Z,74.96
2019-05-13T21:52:41.825Z,74.64
2019-05-13T21:55:11.203Z,75.20
2019-05-13T21:57:37.703Z,74.81
2019-05-13T22:00:08.700Z,74.30
2019-05-13T22:02:37.409Z,73.23
2019-05-13T22:05:04.455Z,73.61
2019-05-13T22:07:31.724Z,72.94
2019-05-13T22:09:58.500Z,73.09
2019-05-13T22:12:25.487Z,73.06
2019-05-13T22:14:52.242Z,73.11
2019-05-13T22:17:18.960Z,73.61
2019-05-13T22:19:45.562Z,73.86
2019-05-13T22:22:12.519Z,73.84
2019-05-13T22:24:39.078Z,73.98
2019-05-13T22:27:06.917Z,73.03
2019-05-13T22:29:33.577Z,72.98
2019-05-13T22:32:01.986Z,73.32
2019-05-13T22:34:29.169Z,73.58
2019-05-13T22:36:55.790Z,73.57
2019-05-13T22:39:22.646Z,73.43
2019-05-13T22:41:49.447Z,73.28
2019-05-13T22:44:16.084Z,73.29
2019-05-13T22:46:43.219Z,74.08
2019-05-13T22:49:11.604Z,73.73
2019-05-13T22:51:38.351Z,73.76
2019-05-13T22:54:05.095Z,73.48
2019-05-13T22:56:32.051Z,73.28
2019-05-13T22:58:58.747Z,73.47
2019-05-13T23:01:25.477Z,73.18
2019-05-13T23:03:52.091Z,73.43
2019-05-13T23:06:21.628Z,73.88
2019-05-13T23:08:48.576Z,73.66
2019-05-13T23:11:15.175Z,72.90
2019-05-13T23:13:42.370Z,73.67
2019-05-13T23:16:11.416Z,73.70
2019-05-13T23:18:37.921Z,73.23
2019-05-13T23:21:04.521Z,73.19
2019-05-13T23:23:31.161Z,73.29
2019-05-13T23:25:57.989Z,73.12
2019-05-13T23:28:24.628Z,73.30
2019-05-13T23:30:51.313Z,73.08
2019-05-13T23:33:18.134Z,73.16
2019-05-13T23:35:46.820Z,73.99
2019-05-13T23:38:13.622Z,73.63
2019-05-13T23:40:42.208Z,73.39
2019-05-13T23:43:11.272Z,73.42
2019-05-13T23:45:38.035Z,73.35
2019-05-13T23:48:04.596Z,73.00
2019-05-13T23:50:32.147Z,73.85
2019-05-13T23:52:59.350Z,73.74
2019-05-13T23:55:27.295Z,74.72
2019-05-13T23:57:53.919Z,74.74
